sensor_id;sensor_type;location;lat;lon;timestamp;temperature;humidity
34153;DHT22;20426;48.372;10.888;2023-10-31T00:00:09;11.30;99.90
34153;DHT22;20426;48.372;10.888;2023-10-31T00:00:42;11.20;99.90
34153;DHT22;20426;48.372;10.888;2023-10-31T00:01:13;11.20;99.90
34153;DHT22;20426;48.372;10.888;2023-10-31T00:01:43;11.20;99.90
34153;DHT22;20426;48.372;10.888;2023-10-31T00:02:14;11.30;99.90
34153;DHT22;20426;48.372;10.888;2023-10-31T00:02:45;11.20;99.90
34153;DHT22;20426;48.372;10.888;2023-10-31T00:03:15;11.20;99.90
34153;DHT22;20426;48.372;10.888;2023-10-31T00:03:46;11.20;99.90
34153;DHT22;20426;48.372;10.888;2023-10-31T00:04:17;11.20;99.90
34153;DHT22;20426;48.372;10.888;2023-10-31T00:04:48;11.20;99.90
34153;DHT22;20426;48.372;10.888;2023-10-31T00:05:18;11.20;99.90
34153;DHT22;20426;48.372;10.888;2023-10-31T00:05:49;11.20;99.90
34153;DHT22;20426;48.372;10.888;2023-10-31T00:06:20;11.20;99.90
34153;DHT22;20426;48.372;10.888;2023-10-31T00:06:51;11.20;99.90
34153;DHT22;20426;48.372;10.888;2023-10-31T00:07:21;11.20;99.90
34153;DHT22;20426;48.372;10.888;2023-10-31T00:07:52;11.20;99.90
34153;DHT22;20426;48.372;10.888;2023-10-31T00:08:23;11.20;99.90
34153;DHT22;20426;48.372;10.888;2023-10-31T00:08:54;11.20;99.90
34153;DHT22;20426;48.372;10.888;2023-10-31T00:09:25;11.20;99.90
34153;DHT22;20426;48.372;10.888;2023-10-31T00:09:56;11.20;99.90
34153;DHT22;20426;48.372;10.888;2023-10-31T00:10:27;11.20;99.90
34153;DHT22;20426;48.372;10.888;2023-10-31T00:10:57;11.20;99.90
34153;DHT22;20426;48.372;10.888;2023-10-31T00:11:28;11.20;99.90
34153;DHT22;20426;48.372;10.888;2023-10-31T00:11:59;11.20;99.90
34153;DHT22;20426;48.372;10.888;2023-10-31T00:12:30;11.20;99.90
34153;DHT22;20426;48.372;10.888;2023-10-31T00:13:00;11.20;99.90
34153;DHT22;20426;48.372;10.888;2023-10-31T00:13:31;11.20;99.90
34153;DHT22;20426;48.372;10.888;2023-10-31T00:14:02;11.20;99.90
34153;DHT22;20426;48.372;10.888;2023-10-31T00:14:33;11.20;99.90
34153;DHT22;20426;48.372;10.888;2023-10-31T00:15:04;11.20;99.90
34153;DHT22;20426;48.372;10.888;2023-10-31T00:15:34;11.10;99.90
34153;DHT22;20426;48.372;10.888;2023-10-31T00:16:05;11.20;99.90
34153;DHT22;20426;48.372;10.888;2023-10-31T00:16:36;11.10;99.90
34153;DHT22;20426;48.372;10.888;2023-10-31T00:17:07;11.20;99.90
34153;DHT22;20426;48.372;10.888;2023-10-31T00:17:37;11.10;99.90
34153;DHT22;20426;48.372;10.888;2023-10-31T00:18:09;11.10;99.90
34153;DHT22;20426;48.372;10.888;2023-10-31T00:18:39;11.10;99.90
34153;DHT22;20426;48.372;10.888;2023-10-31T00:19:10;11.20;99.90
34153;DHT22;20426;48.372;10.888;2023-10-31T00:19:41;11.10;99.90
34153;DHT22;20426;48.372;10.888;2023-10-31T00:20:11;11.10;99.90
34153;DHT22;20426;48.372;10.888;2023-10-31T00:20:42;11.10;99.90
34153;DHT22;20426;48.372;10.888;2023-10-31T00:21:13;11.10;99.90
34153;DHT22;20426;48.372;10.888;2023-10-31T00:21:43;11.10;99.90
34153;DHT22;20426;48.372;10.888;2023-10-31T00:22:14;11.10;99.90
34153;DHT22;20426;48.372;10.888;2023-10-31T00:22:45;11.10;99.90
34153;DHT22;20426;48.372;10.888;2023-10-31T00:23:16;11.10;99.90
34153;DHT22;20426;48.372;10.888;2023-10-31T00:23:48;11.10;99.90
34153;DHT22;20426;48.372;10.888;2023-10-31T00:24:18;11.10;99.90
34153;DHT22;20426;48.372;10.888;2023-10-31T00:24:49;11.10;99.90
34153;DHT22;20426;48.372;10.888;2023-10-31T00:25:20;11.10;99.90
34153;DHT22;20426;48.372;10.888;2023-10-31T00:25:51;11.10;99.90
34153;DHT22;20426;48.372;10.888;2023-10-31T00:26:21;11.10;99.90
34153;DHT22;20426;48.372;10.888;2023-10-31T00:26:52;11.10;99.90
34153;DHT22;20426;48.372;10.888;2023-10-31T00:27:23;11.10;99.90
34153;DHT22;20426;48.372;10.888;2023-10-31T00:27:54;11.10;99.90
34153;DHT22;20426;48.372;10.888;2023-10-31T00:28:24;11.10;99.90
34153;DHT22;20426;48.372;10.888;2023-10-31T00:28:55;11.00;99.90
34153;DHT22;20426;48.372;10.888;2023-10-31T00:29:26;11.10;99.90
34153;DHT22;20426;48.372;10.888;2023-10-31T00:29:56;11.10;99.90
34153;DHT22;20426;48.372;10.888;2023-10-31T00:30:27;11.00;99.90
34153;DHT22;20426;48.372;10.888;2023-10-31T00:30:58;11.10;99.90
34153;DHT22;20426;48.372;10.888;2023-10-31T00:31:28;11.00;99.90
34153;DHT22;20426;48.372;10.888;2023-10-31T00:31:59;11.00;99.90
34153;DHT22;20426;48.372;10.888;2023-10-31T00:32:30;11.00;99.90
34153;DHT22;20426;48.372;10.888;2023-10-31T00:33:01;11.00;99.90
34153;DHT22;20426;48.372;10.888;2023-10-31T00:33:31;11.00;99.90
34153;DHT22;20426;48.372;10.888;2023-10-31T00:34:02;11.00;99.90
34153;DHT22;20426;48.372;10.888;2023-10-31T00:34:33;11.00;99.90
34153;DHT22;20426;48.372;10.888;2023-10-31T00:35:03;11.00;99.90
34153;DHT22;20426;48.372;10.888;2023-10-31T00:35:34;11.00;99.90
34153;DHT22;20426;48.372;10.888;2023-10-31T00:36:05;11.00;99.90
34153;DHT22;20426;48.372;10.888;2023-10-31T00:36:36;11.00;99.90
34153;DHT22;20426;48.372;10.888;2023-10-31T00:37:07;11.00;99.90
34153;DHT22;20426;48.372;10.888;2023-10-31T00:37:38;10.90;99.90
34153;DHT22;20426;48.372;10.888;2023-10-31T00:38:10;10.90;99.90
34153;DHT22;20426;48.372;10.888;2023-10-31T00:38:40;11.00;99.90
34153;DHT22;20426;48.372;10.888;2023-10-31T00:39:11;10.90;99.90
34153;DHT22;20426;48.372;10.888;2023-10-31T00:39:42;10.90;99.90
34153;DHT22;20426;48.372;10.888;2023-10-31T00:40:12;10.90;99.90
34153;DHT22;20426;48.372;10.888;2023-10-31T00:40:44;10.90;99.90
34153;DHT22;20426;48.372;10.888;2023-10-31T00:41:15;10.90;99.90
34153;DHT22;20426;48.372;10.888;2023-10-31T00:41:45;10.90;99.90
34153;DHT22;20426;48.372;10.888;2023-10-31T00:42:16;10.90;99.90
34153;DHT22;20426;48.372;10.888;2023-10-31T00:42:47;10.90;99.90
34153;DHT22;20426;48.372;10.888;2023-10-31T00:43:18;10.90;99.90
34153;DHT22;20426;48.372;10.888;2023-10-31T00:43:49;10.90;99.90
34153;DHT22;20426;48.372;10.888;2023-10-31T00:44:19;10.90;99.90
34153;DHT22;20426;48.372;10.888;2023-10-31T00:44:50;10.90;99.90
34153;DHT22;20426;48.372;10.888;2023-10-31T00:45:21;10.90;99.90
34153;DHT22;20426;48.372;10.888;2023-10-31T00:45:51;10.90;99.90
34153;DHT22;20426;48.372;10.888;2023-10-31T00:46:22;10.90;99.90
34153;DHT22;20426;48.372;10.888;2023-10-31T00:46:53;10.90;99.90
34153;DHT22;20426;48.372;10.888;2023-10-31T00:47:23;10.90;99.90
34153;DHT22;20426;48.372;10.888;2023-10-31T00:47:54;10.90;99.90
34153;DHT22;20426;48.372;10.888;2023-10-31T00:48:25;10.90;99.90
34153;DHT22;20426;48.372;10.888;2023-10-31T00:48:55;10.90;99.90
34153;DHT22;20426;48.372;10.888;2023-10-31T00:49:26;10.90;99.90
34153;DHT22;20426;48.372;10.888;2023-10-31T00:49:56;10.80;99.90
34153;DHT22;20426;48.372;10.888;2023-10-31T00:50:28;10.90;99.90
34153;DHT22;20426;48.372;10.888;2023-10-31T00:50:59;10.90;99.90
34153;DHT22;20426;48.372;10.888;2023-10-31T00:51:30;10.90;99.90
34153;DHT22;20426;48.372;10.888;2023-10-31T00:52:01;10.90;99.90
34153;DHT22;20426;48.372;10.888;2023-10-31T00:52:32;10.80;99.90
34153;DHT22;20426;48.372;10.888;2023-10-31T00:53:03;10.80;99.90
34153;DHT22;20426;48.372;10.888;2023-10-31T00:53:33;10.80;99.90
34153;DHT22;20426;48.372;10.888;2023-10-31T00:54:04;10.80;99.90
34153;DHT22;20426;48.372;10.888;2023-10-31T00:54:35;10.80;99.90
34153;DHT22;20426;48.372;10.888;2023-10-31T00:55:06;10.80;99.90
34153;DHT22;20426;48.372;10.888;2023-10-31T00:55:37;10.80;99.90
34153;DHT22;20426;48.372;10.888;2023-10-31T00:56:08;10.80;99.90
34153;DHT22;20426;48.372;10.888;2023-10-31T00:56:38;10.80;99.90
34153;DHT22;20426;48.372;10.888;2023-10-31T00:57:09;10.80;99.90
34153;DHT22;20426;48.372;10.888;2023-10-31T00:57:40;10.80;99.90
34153;DHT22;20426;48.372;10.888;2023-10-31T00:58:11;10.80;99.90
34153;DHT22;20426;48.372;10.888;2023-10-31T00:58:42;10.80;99.90
34153;DHT22;20426;48.372;10.888;2023-10-31T00:59:12;10.80;99.90
34153;DHT22;20426;48.372;10.888;2023-10-31T00:59:43;10.80;99.90
34153;DHT22;20426;48.372;10.888;2023-10-31T01:00:14;10.80;99.90
34153;DHT22;20426;48.372;10.888;2023-10-31T01:00:45;10.80;99.90
34153;DHT22;20426;48.372;10.888;2023-10-31T01:01:16;10.80;99.90
34153;DHT22;20426;48.372;10.888;2023-10-31T01:01:46;10.80;99.90
34153;DHT22;20426;48.372;10.888;2023-10-31T01:02:17;10.80;99.90
34153;DHT22;20426;48.372;10.888;2023-10-31T01:02:48;10.80;99.90
34153;DHT22;20426;48.372;10.888;2023-10-31T01:03:18;10.70;99.90
34153;DHT22;20426;48.372;10.888;2023-10-31T01:03:49;10.70;99.90
34153;DHT22;20426;48.372;10.888;2023-10-31T01:04:20;10.70;99.90
34153;DHT22;20426;48.372;10.888;2023-10-31T01:04:51;10.70;99.90
34153;DHT22;20426;48.372;10.888;2023-10-31T01:05:22;10.70;99.90
34153;DHT22;20426;48.372;10.888;2023-10-31T01:05:53;10.80;99.90
34153;DHT22;20426;48.372;10.888;2023-10-31T01:06:23;10.70;99.90
34153;DHT22;20426;48.372;10.888;2023-10-31T01:06:54;10.70;99.90
34153;DHT22;20426;48.372;10.888;2023-10-31T01:07:25;10.70;99.90
34153;DHT22;20426;48.372;10.888;2023-10-31T01:07:55;10.70;99.90
34153;DHT22;20426;48.372;10.888;2023-10-31T01:08:26;10.70;99.90
34153;DHT22;20426;48.372;10.888;2023-10-31T01:08:57;10.70;99.90
34153;DHT22;20426;48.372;10.888;2023-10-31T01:09:28;10.70;99.90
34153;DHT22;20426;48.372;10.888;2023-10-31T01:09:59;10.70;99.90
34153;DHT22;20426;48.372;10.888;2023-10-31T01:10:29;10.70;99.90
34153;DHT22;20426;48.372;10.888;2023-10-31T01:11:00;10.70;99.90
34153;DHT22;20426;48.372;10.888;2023-10-31T01:11:31;10.70;99.90
34153;DHT22;20426;48.372;10.888;2023-10-31T01:12:01;10.80;99.90
34153;DHT22;20426;48.372;10.888;2023-10-31T01:12:32;10.70;99.90
34153;DHT22;20426;48.372;10.888;2023-10-31T01:13:03;10.70;99.90
34153;DHT22;20426;48.372;10.888;2023-10-31T01:13:33;10.70;99.90
34153;DHT22;20426;48.372;10.888;2023-10-31T01:14:04;10.80;99.90
34153;DHT22;20426;48.372;10.888;2023-10-31T01:14:35;10.80;99.90
34153;DHT22;20426;48.372;10.888;2023-10-31T01:15:06;10.70;99.90
34153;DHT22;20426;48.372;10.888;2023-10-31T01:15:37;10.80;99.90
34153;DHT22;20426;48.372;10.888;2023-10-31T01:16:08;10.80;99.90
34153;DHT22;20426;48.372;10.888;2023-10-31T01:16:40;10.80;99.90
34153;DHT22;20426;48.372;10.888;2023-10-31T01:17:10;10.80;99.90
34153;DHT22;20426;48.372;10.888;2023-10-31T01:17:41;10.80;99.90
34153;DHT22;20426;48.372;10.888;2023-10-31T01:18:12;10.80;99.90
34153;DHT22;20426;48.372;10.888;2023-10-31T01:18:42;10.80;99.90
34153;DHT22;20426;48.372;10.888;2023-10-31T01:19:13;10.80;99.90
34153;DHT22;20426;48.372;10.888;2023-10-31T01:19:44;10.80;99.90
34153;DHT22;20426;48.372;10.888;2023-10-31T01:20:14;10.80;99.90
34153;DHT22;20426;48.372;10.888;2023-10-31T01:20:45;10.80;99.90
34153;DHT22;20426;48.372;10.888;2023-10-31T01:21:16;10.80;99.90
34153;DHT22;20426;48.372;10.888;2023-10-31T01:21:47;10.80;99.90
34153;DHT22;20426;48.372;10.888;2023-10-31T01:22:17;10.80;99.90
34153;DHT22;20426;48.372;10.888;2023-10-31T01:22:48;10.80;99.90
34153;DHT22;20426;48.372;10.888;2023-10-31T01:23:19;10.80;99.90
34153;DHT22;20426;48.372;10.888;2023-10-31T01:23:49;10.80;99.90
34153;DHT22;20426;48.372;10.888;2023-10-31T01:24:20;10.80;99.90
34153;DHT22;20426;48.372;10.888;2023-10-31T01:24:51;10.80;99.90
34153;DHT22;20426;48.372;10.888;2023-10-31T01:25:22;10.80;99.90
34153;DHT22;20426;48.372;10.888;2023-10-31T01:25:53;10.80;99.90
34153;DHT22;20426;48.372;10.888;2023-10-31T01:26:23;10.80;99.90
34153;DHT22;20426;48.372;10.888;2023-10-31T01:26:54;10.80;99.90
34153;DHT22;20426;48.372;10.888;2023-10-31T01:27:25;10.80;99.90
34153;DHT22;20426;48.372;10.888;2023-10-31T01:27:55;10.80;99.90
34153;DHT22;20426;48.372;10.888;2023-10-31T01:28:26;10.80;99.90
34153;DHT22;20426;48.372;10.888;2023-10-31T01:28:57;10.80;99.90
34153;DHT22;20426;48.372;10.888;2023-10-31T01:29:29;10.70;99.90
34153;DHT22;20426;48.372;10.888;2023-10-31T01:29:59;10.70;99.90
34153;DHT22;20426;48.372;10.888;2023-10-31T01:30:30;10.80;99.90
34153;DHT22;20426;48.372;10.888;2023-10-31T01:31:01;10.80;99.90
34153;DHT22;20426;48.372;10.888;2023-10-31T01:31:32;10.80;99.90
34153;DHT22;20426;48.372;10.888;2023-10-31T01:32:03;10.70;99.90
34153;DHT22;20426;48.372;10.888;2023-10-31T01:32:34;10.80;99.90
34153;DHT22;20426;48.372;10.888;2023-10-31T01:33:05;10.70;99.90
34153;DHT22;20426;48.372;10.888;2023-10-31T01:33:35;10.70;99.90
34153;DHT22;20426;48.372;10.888;2023-10-31T01:34:06;10.70;99.90
34153;DHT22;20426;48.372;10.888;2023-10-31T01:34:38;10.70;99.90
34153;DHT22;20426;48.372;10.888;2023-10-31T01:35:09;10.70;99.90
34153;DHT22;20426;48.372;10.888;2023-10-31T01:35:40;10.70;99.90
34153;DHT22;20426;48.372;10.888;2023-10-31T01:36:10;10.70;99.90
34153;DHT22;20426;48.372;10.888;2023-10-31T01:36:42;10.70;99.90
34153;DHT22;20426;48.372;10.888;2023-10-31T01:37:13;10.70;99.90
34153;DHT22;20426;48.372;10.888;2023-10-31T01:37:44;10.70;99.90
34153;DHT22;20426;48.372;10.888;2023-10-31T01:38:15;10.70;99.90
34153;DHT22;20426;48.372;10.888;2023-10-31T01:38:46;10.70;99.90
34153;DHT22;20426;48.372;10.888;2023-10-31T01:39:16;10.70;99.90
34153;DHT22;20426;48.372;10.888;2023-10-31T01:39:47;10.80;99.90
34153;DHT22;20426;48.372;10.888;2023-10-31T01:40:19;10.70;99.90
34153;DHT22;20426;48.372;10.888;2023-10-31T01:40:50;10.70;99.90
34153;DHT22;20426;48.372;10.888;2023-10-31T01:41:24;10.70;99.90
34153;DHT22;20426;48.372;10.888;2023-10-31T01:41:54;10.70;99.90
34153;DHT22;20426;48.372;10.888;2023-10-31T01:42:25;10.70;99.90
34153;DHT22;20426;48.372;10.888;2023-10-31T01:42:56;10.70;99.90
34153;DHT22;20426;48.372;10.888;2023-10-31T01:43:34;10.70;99.90
34153;DHT22;20426;48.372;10.888;2023-10-31T01:44:05;10.70;99.90
34153;DHT22;20426;48.372;10.888;2023-10-31T01:44:35;10.70;99.90
34153;DHT22;20426;48.372;10.888;2023-10-31T01:45:07;10.70;99.90
34153;DHT22;20426;48.372;10.888;2023-10-31T01:45:38;10.70;99.90
34153;DHT22;20426;48.372;10.888;2023-10-31T01:46:09;10.70;99.90
34153;DHT22;20426;48.372;10.888;2023-10-31T01:46:39;10.70;99.90
34153;DHT22;20426;48.372;10.888;2023-10-31T01:47:10;10.70;99.90
34153;DHT22;20426;48.372;10.888;2023-10-31T01:47:43;10.70;99.90
34153;DHT22;20426;48.372;10.888;2023-10-31T01:48:15;10.70;99.90
34153;DHT22;20426;48.372;10.888;2023-10-31T01:48:46;10.70;99.90
34153;DHT22;20426;48.372;10.888;2023-10-31T01:49:16;10.70;99.90
34153;DHT22;20426;48.372;10.888;2023-10-31T01:49:47;10.70;99.90
34153;DHT22;20426;48.372;10.888;2023-10-31T01:50:18;10.70;99.90
34153;DHT22;20426;48.372;10.888;2023-10-31T01:50:50;10.70;99.90
34153;DHT22;20426;48.372;10.888;2023-10-31T01:51:21;10.70;99.90
34153;DHT22;20426;48.372;10.888;2023-10-31T01:51:52;10.60;99.90
34153;DHT22;20426;48.372;10.888;2023-10-31T01:52:22;10.60;99.90
34153;DHT22;20426;48.372;10.888;2023-10-31T01:52:53;10.60;99.90
34153;DHT22;20426;48.372;10.888;2023-10-31T01:53:25;10.60;99.90
34153;DHT22;20426;48.372;10.888;2023-10-31T01:53:56;10.60;99.90
34153;DHT22;20426;48.372;10.888;2023-10-31T01:54:27;10.60;99.90
34153;DHT22;20426;48.372;10.888;2023-10-31T01:54:58;10.60;99.90
34153;DHT22;20426;48.372;10.888;2023-10-31T01:55:29;10.60;99.90
34153;DHT22;20426;48.372;10.888;2023-10-31T01:56:00;10.60;99.90
34153;DHT22;20426;48.372;10.888;2023-10-31T01:56:34;10.60;99.90
34153;DHT22;20426;48.372;10.888;2023-10-31T01:57:05;10.60;99.90
34153;DHT22;20426;48.372;10.888;2023-10-31T01:57:36;10.60;99.90
34153;DHT22;20426;48.372;10.888;2023-10-31T01:58:08;10.60;99.90
34153;DHT22;20426;48.372;10.888;2023-10-31T01:58:39;10.60;99.90
34153;DHT22;20426;48.372;10.888;2023-10-31T01:59:12;10.60;99.90
34153;DHT22;20426;48.372;10.888;2023-10-31T01:59:43;10.60;99.90
34153;DHT22;20426;48.372;10.888;2023-10-31T02:00:14;10.60;99.90
34153;DHT22;20426;48.372;10.888;2023-10-31T02:00:45;10.60;99.90
34153;DHT22;20426;48.372;10.888;2023-10-31T02:01:16;10.60;99.90
34153;DHT22;20426;48.372;10.888;2023-10-31T02:01:47;10.60;99.90
34153;DHT22;20426;48.372;10.888;2023-10-31T02:02:21;10.60;99.90
34153;DHT22;20426;48.372;10.888;2023-10-31T02:02:53;10.60;99.90
34153;DHT22;20426;48.372;10.888;2023-10-31T02:03:24;10.60;99.90
34153;DHT22;20426;48.372;10.888;2023-10-31T02:03:55;10.60;99.90
34153;DHT22;20426;48.372;10.888;2023-10-31T02:04:26;10.60;99.90
34153;DHT22;20426;48.372;10.888;2023-10-31T02:04:57;10.60;99.90
34153;DHT22;20426;48.372;10.888;2023-10-31T02:05:28;10.70;99.90
34153;DHT22;20426;48.372;10.888;2023-10-31T02:05:59;10.60;99.90
34153;DHT22;20426;48.372;10.888;2023-10-31T02:06:30;10.60;99.90
34153;DHT22;20426;48.372;10.888;2023-10-31T02:07:00;10.60;99.90
34153;DHT22;20426;48.372;10.888;2023-10-31T02:07:31;10.60;99.90
34153;DHT22;20426;48.372;10.888;2023-10-31T02:08:02;10.60;99.90
34153;DHT22;20426;48.372;10.888;2023-10-31T02:08:33;10.60;99.90
34153;DHT22;20426;48.372;10.888;2023-10-31T02:09:04;10.60;99.90
34153;DHT22;20426;48.372;10.888;2023-10-31T02:09:34;10.60;99.90
34153;DHT22;20426;48.372;10.888;2023-10-31T02:10:05;10.60;99.90
34153;DHT22;20426;48.372;10.888;2023-10-31T02:10:36;10.60;99.90
34153;DHT22;20426;48.372;10.888;2023-10-31T02:11:07;10.60;99.90
34153;DHT22;20426;48.372;10.888;2023-10-31T02:11:40;10.60;99.90
34153;DHT22;20426;48.372;10.888;2023-10-31T02:12:11;10.60;99.90
34153;DHT22;20426;48.372;10.888;2023-10-31T02:12:42;10.60;99.90
34153;DHT22;20426;48.372;10.888;2023-10-31T02:13:13;10.60;99.90
34153;DHT22;20426;48.372;10.888;2023-10-31T02:13:44;10.60;99.90
34153;DHT22;20426;48.372;10.888;2023-10-31T02:14:14;10.60;99.90
34153;DHT22;20426;48.372;10.888;2023-10-31T02:14:45;10.60;99.90
34153;DHT22;20426;48.372;10.888;2023-10-31T02:15:15;10.60;99.90
34153;DHT22;20426;48.372;10.888;2023-10-31T02:15:46;10.60;99.90
34153;DHT22;20426;48.372;10.888;2023-10-31T02:16:17;10.60;99.90
34153;DHT22;20426;48.372;10.888;2023-10-31T02:16:48;10.60;99.90
34153;DHT22;20426;48.372;10.888;2023-10-31T02:17:19;10.60;99.90
34153;DHT22;20426;48.372;10.888;2023-10-31T02:17:49;10.60;99.90
34153;DHT22;20426;48.372;10.888;2023-10-31T02:18:21;10.60;99.90
34153;DHT22;20426;48.372;10.888;2023-10-31T02:18:52;10.60;99.90
34153;DHT22;20426;48.372;10.888;2023-10-31T02:19:23;10.60;99.90
34153;DHT22;20426;48.372;10.888;2023-10-31T02:19:54;10.60;99.90
34153;DHT22;20426;48.372;10.888;2023-10-31T02:20:25;10.60;99.90
34153;DHT22;20426;48.372;10.888;2023-10-31T02:20:55;10.60;99.90
34153;DHT22;20426;48.372;10.888;2023-10-31T02:21:27;10.60;99.90
34153;DHT22;20426;48.372;10.888;2023-10-31T02:21:58;10.60;99.90
34153;DHT22;20426;48.372;10.888;2023-10-31T02:22:30;10.60;99.90
34153;DHT22;20426;48.372;10.888;2023-10-31T02:23:00;10.60;99.90
34153;DHT22;20426;48.372;10.888;2023-10-31T02:23:31;10.60;99.90
34153;DHT22;20426;48.372;10.888;2023-10-31T02:24:03;10.60;99.90
34153;DHT22;20426;48.372;10.888;2023-10-31T02:24:33;10.60;99.90
34153;DHT22;20426;48.372;10.888;2023-10-31T02:25:16;10.60;99.90
34153;DHT22;20426;48.372;10.888;2023-10-31T02:25:46;10.60;99.90
34153;DHT22;20426;48.372;10.888;2023-10-31T02:26:17;10.60;99.90
34153;DHT22;20426;48.372;10.888;2023-10-31T02:26:48;10.60;99.90
34153;DHT22;20426;48.372;10.888;2023-10-31T02:27:18;10.60;99.90
34153;DHT22;20426;48.372;10.888;2023-10-31T02:27:49;10.60;99.90
34153;DHT22;20426;48.372;10.888;2023-10-31T02:28:20;10.60;99.90
34153;DHT22;20426;48.372;10.888;2023-10-31T02:28:50;10.60;99.90
34153;DHT22;20426;48.372;10.888;2023-10-31T02:29:21;10.60;99.90
34153;DHT22;20426;48.372;10.888;2023-10-31T02:29:53;10.60;99.90
34153;DHT22;20426;48.372;10.888;2023-10-31T02:30:24;10.60;99.90
34153;DHT22;20426;48.372;10.888;2023-10-31T02:30:55;10.60;99.90
34153;DHT22;20426;48.372;10.888;2023-10-31T02:31:25;10.60;99.90
34153;DHT22;20426;48.372;10.888;2023-10-31T02:31:56;10.60;99.90
34153;DHT22;20426;48.372;10.888;2023-10-31T02:32:27;10.60;99.90
34153;DHT22;20426;48.372;10.888;2023-10-31T02:32:58;10.60;99.90
34153;DHT22;20426;48.372;10.888;2023-10-31T02:33:28;10.60;99.90
34153;DHT22;20426;48.372;10.888;2023-10-31T02:33:59;10.60;99.90
34153;DHT22;20426;48.372;10.888;2023-10-31T02:34:30;10.60;99.90
34153;DHT22;20426;48.372;10.888;2023-10-31T02:35:00;10.60;99.90
34153;DHT22;20426;48.372;10.888;2023-10-31T02:35:31;10.60;99.90
34153;DHT22;20426;48.372;10.888;2023-10-31T02:36:02;10.60;99.90
34153;DHT22;20426;48.372;10.888;2023-10-31T02:36:33;10.60;99.90
34153;DHT22;20426;48.372;10.888;2023-10-31T02:37:04;10.60;99.90
34153;DHT22;20426;48.372;10.888;2023-10-31T02:37:35;10.60;99.90
34153;DHT22;20426;48.372;10.888;2023-10-31T02:38:06;10.60;99.90
34153;DHT22;20426;48.372;10.888;2023-10-31T02:38:37;10.60;99.90
34153;DHT22;20426;48.372;10.888;2023-10-31T02:39:08;10.60;99.90
34153;DHT22;20426;48.372;10.888;2023-10-31T02:39:38;10.60;99.90
34153;DHT22;20426;48.372;10.888;2023-10-31T02:40:09;10.60;99.90
34153;DHT22;20426;48.372;10.888;2023-10-31T02:40:40;10.60;99.90
34153;DHT22;20426;48.372;10.888;2023-10-31T02:41:11;10.60;99.90
34153;DHT22;20426;48.372;10.888;2023-10-31T02:41:42;10.60;99.90
34153;DHT22;20426;48.372;10.888;2023-10-31T02:42:13;10.60;99.90
34153;DHT22;20426;48.372;10.888;2023-10-31T02:42:44;10.60;99.90
34153;DHT22;20426;48.372;10.888;2023-10-31T02:43:14;10.60;99.90
34153;DHT22;20426;48.372;10.888;2023-10-31T02:43:45;10.60;99.90
34153;DHT22;20426;48.372;10.888;2023-10-31T02:44:16;10.60;99.90
34153;DHT22;20426;48.372;10.888;2023-10-31T02:44:47;10.60;99.90
34153;DHT22;20426;48.372;10.888;2023-10-31T02:45:17;10.60;99.90
34153;DHT22;20426;48.372;10.888;2023-10-31T02:45:49;10.60;99.90
34153;DHT22;20426;48.372;10.888;2023-10-31T02:46:19;10.60;99.90
34153;DHT22;20426;48.372;10.888;2023-10-31T02:46:50;10.60;99.90
34153;DHT22;20426;48.372;10.888;2023-10-31T02:47:21;10.70;99.90
34153;DHT22;20426;48.372;10.888;2023-10-31T02:47:51;10.60;99.90
34153;DHT22;20426;48.372;10.888;2023-10-31T02:48:23;10.60;99.90
34153;DHT22;20426;48.372;10.888;2023-10-31T02:48:55;10.70;99.90
34153;DHT22;20426;48.372;10.888;2023-10-31T02:49:25;10.60;99.90
34153;DHT22;20426;48.372;10.888;2023-10-31T02:49:56;10.70;99.90
34153;DHT22;20426;48.372;10.888;2023-10-31T02:50:27;10.60;99.90
34153;DHT22;20426;48.372;10.888;2023-10-31T02:50:57;10.60;99.90
34153;DHT22;20426;48.372;10.888;2023-10-31T02:51:28;10.60;99.90
34153;DHT22;20426;48.372;10.888;2023-10-31T02:51:59;10.60;99.90
34153;DHT22;20426;48.372;10.888;2023-10-31T02:52:30;10.60;99.90
34153;DHT22;20426;48.372;10.888;2023-10-31T02:53:01;10.60;99.90
34153;DHT22;20426;48.372;10.888;2023-10-31T02:53:32;10.60;99.90
34153;DHT22;20426;48.372;10.888;2023-10-31T02:54:04;10.60;99.90
34153;DHT22;20426;48.372;10.888;2023-10-31T02:54:34;10.60;99.90
34153;DHT22;20426;48.372;10.888;2023-10-31T02:55:05;10.60;99.90
34153;DHT22;20426;48.372;10.888;2023-10-31T02:55:36;10.60;99.90
34153;DHT22;20426;48.372;10.888;2023-10-31T02:56:07;10.60;99.90
34153;DHT22;20426;48.372;10.888;2023-10-31T02:56:38;10.60;99.90
34153;DHT22;20426;48.372;10.888;2023-10-31T02:57:09;10.60;99.90
34153;DHT22;20426;48.372;10.888;2023-10-31T02:57:39;10.70;99.90
34153;DHT22;20426;48.372;10.888;2023-10-31T02:58:10;10.60;99.90
34153;DHT22;20426;48.372;10.888;2023-10-31T02:58:41;10.60;99.90
34153;DHT22;20426;48.372;10.888;2023-10-31T02:59:12;10.60;99.90
34153;DHT22;20426;48.372;10.888;2023-10-31T02:59:42;10.60;99.90
34153;DHT22;20426;48.372;10.888;2023-10-31T03:00:13;10.60;99.90
34153;DHT22;20426;48.372;10.888;2023-10-31T03:00:44;10.60;99.90
34153;DHT22;20426;48.372;10.888;2023-10-31T03:01:15;10.60;99.90
34153;DHT22;20426;48.372;10.888;2023-10-31T03:01:45;10.60;99.90
34153;DHT22;20426;48.372;10.888;2023-10-31T03:02:16;10.60;99.90
34153;DHT22;20426;48.372;10.888;2023-10-31T03:02:47;10.60;99.90
34153;DHT22;20426;48.372;10.888;2023-10-31T03:03:17;10.60;99.90
34153;DHT22;20426;48.372;10.888;2023-10-31T03:03:48;10.60;99.90
34153;DHT22;20426;48.372;10.888;2023-10-31T03:04:19;10.60;99.90
34153;DHT22;20426;48.372;10.888;2023-10-31T03:04:49;10.60;99.90
34153;DHT22;20426;48.372;10.888;2023-10-31T03:05:20;10.60;99.90
34153;DHT22;20426;48.372;10.888;2023-10-31T03:05:51;10.60;99.90
34153;DHT22;20426;48.372;10.888;2023-10-31T03:06:22;10.60;99.90
34153;DHT22;20426;48.372;10.888;2023-10-31T03:06:52;10.60;99.90
34153;DHT22;20426;48.372;10.888;2023-10-31T03:07:23;10.60;99.90
34153;DHT22;20426;48.372;10.888;2023-10-31T03:07:54;10.60;99.90
34153;DHT22;20426;48.372;10.888;2023-10-31T03:08:24;10.60;99.90
34153;DHT22;20426;48.372;10.888;2023-10-31T03:08:55;10.60;99.90
34153;DHT22;20426;48.372;10.888;2023-10-31T03:09:26;10.60;99.90
34153;DHT22;20426;48.372;10.888;2023-10-31T03:09:57;10.60;99.90
34153;DHT22;20426;48.372;10.888;2023-10-31T03:10:28;10.60;99.90
34153;DHT22;20426;48.372;10.888;2023-10-31T03:10:58;10.60;99.90
34153;DHT22;20426;48.372;10.888;2023-10-31T03:11:29;10.60;99.90
34153;DHT22;20426;48.372;10.888;2023-10-31T03:12:00;10.60;99.90